Time;durP1;ratioP1;P1;durP2;ratioP2;P2;SDS_P1;SDS_P2;PMS_P1;PMS_P2;Temp;Humidity;BMP_temperature;BMP_pressure;BME280_temperature;BME280_humidity;BME280_pressure;Samples;Min_cycle;Max_cycle;Signal;HPM_P1;HPM_P2
2023/09/21 00:01:12;;;;;;;4.20;3.05;;;15.00;99.90;;;;;;4930894;29;20028;-59
2023/09/21 00:03:39;;;;;;;5.65;3.78;;;15.00;99.90;;;;;;4925579;29;20046;-60
2023/09/21 00:06:05;;;;;;;4.28;3.15;;;14.90;99.90;;;;;;4924117;29;20519;-59
2023/09/21 00:08:32;;;;;;;3.55;3.25;;;14.90;99.90;;;;;;4923722;29;20556;-59
2023/09/21 00:10:59;;;;;;;3.97;2.80;;;14.90;99.90;;;;;;4923313;29;20020;-59
2023/09/21 00:13:29;;;;;;;4.57;2.40;;;14.90;99.90;;;;;;4924823;28;20032;-60
2023/09/21 00:15:56;;;;;;;4.53;2.97;;;14.90;99.90;;;;;;4924107;29;20069;-60
2023/09/21 00:18:22;;;;;;;3.95;2.88;;;14.80;99.90;;;;;;4924998;28;20329;-59
2023/09/21 00:20:54;;;;;;;5.88;2.95;;;14.80;99.90;;;;;;4924392;29;20051;-60
2023/09/21 00:23:21;;;;;;;5.80;2.92;;;14.80;99.90;;;;;;4924901;29;20448;-59
2023/09/21 00:25:47;;;;;;;5.38;2.90;;;14.70;99.90;;;;;;4923672;29;20480;-60
2023/09/21 00:28:14;;;;;;;3.55;2.75;;;14.70;99.90;;;;;;4928294;29;20071;-61
2023/09/21 00:30:43;;;;;;;2.88;2.58;;;14.70;99.90;;;;;;4925372;29;20091;-60
2023/09/21 00:33:09;;;;;;;3.40;3.10;;;14.70;99.90;;;;;;4927904;29;20039;-59
2023/09/21 00:35:39;;;;;;;3.55;3.20;;;14.70;99.90;;;;;;4929041;29;20044;-59
2023/09/21 00:38:15;;;;;;;3.75;3.45;;;14.70;99.90;;;;;;4930032;29;20032;-60
2023/09/21 00:40:44;;;;;;;4.72;3.17;;;14.70;99.90;;;;;;4926623;29;20046;-59
2023/09/21 00:43:20;;;;;;;3.15;2.78;;;14.70;99.90;;;;;;4929337;29;20048;-59
2023/09/21 00:45:50;;;;;;;3.33;2.70;;;14.60;99.90;;;;;;4929856;29;20047;-59
2023/09/21 00:48:21;;;;;;;5.60;2.85;;;14.60;99.90;;;;;;4929661;29;20403;-59
2023/09/21 00:50:48;;;;;;;;;;;14.60;99.90;;;;;;4930823;29;20056;-59
2023/09/21 00:53:15;;;;;;;3.20;2.90;;;14.60;99.90;;;;;;4926327;29;19911;-59
2023/09/21 00:55:45;;;;;;;3.10;2.65;;;14.60;99.90;;;;;;4930990;29;20019;-59
2023/09/21 00:58:12;;;;;;;2.83;2.63;;;14.60;99.90;;;;;;4926219;29;20491;-59
2023/09/21 01:00:39;;;;;;;3.85;3.45;;;14.60;99.90;;;;;;4928173;29;20039;-58
2023/09/21 01:03:07;;;;;;;3.47;2.80;;;14.60;99.90;;;;;;4925308;28;20059;-59
2023/09/21 01:05:39;;;;;;;2.33;2.13;;;14.60;99.90;;;;;;4926852;29;20098;-59
2023/09/21 01:08:10;;;;;;;2.78;2.40;;;14.50;99.90;;;;;;4928705;29;20578;-60
2023/09/21 01:10:42;;;;;;;3.13;2.67;;;14.50;99.90;;;;;;4926400;29;20488;-59
2023/09/21 01:13:08;;;;;;;;;;;14.50;99.90;;;;;;4929091;29;20038;-60
2023/09/21 01:15:37;;;;;;;5.22;2.90;;;14.50;99.90;;;;;;4930159;28;19973;-59
2023/09/21 01:18:07;;;;;;;2.90;2.45;;;14.40;99.90;;;;;;4925444;29;20028;-60
2023/09/21 01:20:33;;;;;;;3.37;2.83;;;14.40;99.90;;;;;;4925995;29;20042;-58
2023/09/21 01:23:18;;;;;;;4.15;2.83;;;14.30;99.90;;;;;;4927708;29;20031;-60
2023/09/21 01:25:48;;;;;;;3.40;2.55;;;14.30;99.90;;;;;;4927949;29;20036;-60
2023/09/21 01:28:18;;;;;;;2.78;2.45;;;14.30;99.90;;;;;;4927205;29;20062;-59
2023/09/21 01:30:44;;;;;;;4.67;3.03;;;14.30;99.90;;;;;;4927532;29;20028;-59
2023/09/21 01:33:11;;;;;;;3.10;2.80;;;14.30;99.90;;;;;;4926132;29;20300;-59
2023/09/21 01:35:38;;;;;;;6.10;2.63;;;14.30;99.90;;;;;;4929507;29;20038;-59
2023/09/21 01:38:06;;;;;;;3.00;2.70;;;14.20;99.90;;;;;;4930734;29;20030;-60
2023/09/21 01:40:34;;;;;;;3.03;2.60;;;14.10;99.90;;;;;;4928966;29;20039;-60
2023/09/21 01:43:03;;;;;;;3.75;3.40;;;14.10;99.90;;;;;;4927587;29;20028;-60
2023/09/21 01:45:29;;;;;;;3.00;2.70;;;14.10;99.90;;;;;;4926049;29;20118;-60
2023/09/21 01:47:55;;;;;;;5.88;3.17;;;14.10;99.90;;;;;;4926496;29;20127;-60
2023/09/21 01:50:21;;;;;;;3.60;3.20;;;14.00;99.90;;;;;;4929087;28;20028;-60
2023/09/21 01:52:48;;;;;;;3.70;3.40;;;14.00;99.90;;;;;;4928663;29;20047;-60
2023/09/21 01:55:13;;;;;;;3.53;3.22;;;14.00;99.90;;;;;;4928823;29;20369;-60
2023/09/21 01:57:39;;;;;;;3.42;3.13;;;14.10;99.90;;;;;;4928796;28;20102;-58
2023/09/21 02:00:26;;;;;;;4.03;2.75;;;14.10;99.90;;;;;;4927679;29;20083;-60
2023/09/21 02:02:53;;;;;;;4.00;3.70;;;14.10;99.90;;;;;;4926328;28;20043;-60
2023/09/21 02:05:19;;;;;;;3.53;3.22;;;14.20;99.90;;;;;;4929835;29;20034;-60
2023/09/21 02:07:46;;;;;;;3.80;3.30;;;14.10;99.90;;;;;;4928101;29;20044;-61
2023/09/21 02:10:13;;;;;;;3.90;3.45;;;14.10;99.90;;;;;;4913629;29;20040;-59
2023/09/21 02:12:39;;;;;;;6.13;3.63;;;14.10;99.90;;;;;;4927795;29;20048;-60
2023/09/21 02:15:17;;;;;;;3.20;3.00;;;14.10;99.90;;;;;;4908553;29;20064;-59
2023/09/21 02:17:42;;;;;;;2.95;2.75;;;14.10;99.90;;;;;;4926268;29;20066;-60
2023/09/21 02:20:16;;;;;;;4.90;3.30;;;14.00;99.90;;;;;;4928347;29;20448;-59
2023/09/21 02:22:46;;;;;;;3.90;3.53;;;14.00;99.90;;;;;;4928557;29;20571;-59
2023/09/21 02:25:13;;;;;;;2.97;2.73;;;14.00;99.90;;;;;;4926950;29;20032;-59
2023/09/21 02:27:47;;;;;;;3.15;2.85;;;14.00;99.90;;;;;;4926579;29;20347;-59
2023/09/21 02:30:14;;;;;;;5.43;3.10;;;13.90;99.90;;;;;;4925251;29;20028;-59
2023/09/21 02:32:49;;;;;;;3.95;3.38;;;13.70;99.90;;;;;;4929326;29;20035;-59
2023/09/21 02:35:16;;;;;;;3.55;3.25;;;13.60;99.90;;;;;;4923642;29;20445;-59
2023/09/21 02:37:46;;;;;;;3.08;2.70;;;13.50;99.90;;;;;;4927836;29;20043;-59
2023/09/21 02:40:17;;;;;;;3.10;2.85;;;13.40;99.90;;;;;;4925256;29;20091;-59
2023/09/21 02:42:44;;;;;;;4.00;3.03;;;13.40;99.90;;;;;;4927648;28;20038;-60
2023/09/21 02:45:11;;;;;;;3.08;2.78;;;13.30;99.90;;;;;;4930073;29;20098;-59
2023/09/21 02:47:37;;;;;;;4.25;2.83;;;13.20;99.90;;;;;;4925302;28;20044;-59
2023/09/21 02:50:11;;;;;;;2.90;2.70;;;13.20;99.90;;;;;;4925547;29;20031;-59
2023/09/21 02:52:37;;;;;;;2.85;2.55;;;13.10;99.90;;;;;;4926254;29;20512;-59
2023/09/21 02:55:03;;;;;;;3.30;3.00;;;13.10;99.90;;;;;;4926166;28;20043;-59
2023/09/21 02:57:29;;;;;;;4.78;3.40;;;13.10;99.90;;;;;;4926493;29;20083;-59
2023/09/21 02:59:55;;;;;;;4.20;3.88;;;13.10;99.90;;;;;;4927276;29;20034;-59
2023/09/21 03:02:20;;;;;;;4.07;3.67;;;13.10;99.90;;;;;;4927419;29;20028;-59
2023/09/21 03:04:48;;;;;;;7.50;3.58;;;13.20;99.90;;;;;;4927143;29;20039;-60
2023/09/21 03:07:16;;;;;;;3.70;3.40;;;13.20;99.90;;;;;;4926634;29;20028;-59
2023/09/21 03:09:42;;;;;;;3.88;3.42;;;13.20;99.90;;;;;;4928260;29;20099;-59
2023/09/21 03:12:08;;;;;;;3.85;2.97;;;13.30;99.90;;;;;;4925142;29;20449;-59
2023/09/21 03:14:34;;;;;;;3.42;3.13;;;13.30;99.90;;;;;;4924734;29;20392;-59
2023/09/21 03:17:01;;;;;;;4.03;3.63;;;13.30;99.90;;;;;;4930247;29;20445;-60
2023/09/21 03:19:27;;;;;;;5.65;3.50;;;13.40;99.90;;;;;;4926160;28;20091;-59
2023/09/21 03:21:53;;;;;;;3.70;3.28;;;13.40;99.90;;;;;;4927474;29;20091;-60
2023/09/21 03:24:18;;;;;;;5.47;3.60;;;13.40;99.90;;;;;;4928179;28;20046;-60
2023/09/21 03:26:45;;;;;;;4.80;3.53;;;13.40;99.90;;;;;;4926974;29;20023;-59
2023/09/21 03:29:12;;;;;;;3.53;3.22;;;13.40;99.90;;;;;;4926271;28;20024;-59
2023/09/21 03:31:38;;;;;;;3.17;2.50;;;13.30;99.90;;;;;;4926624;29;20395;-59
2023/09/21 03:34:05;;;;;;;3.40;3.10;;;13.30;99.90;;;;;;4922635;29;20035;-60
2023/09/21 03:36:35;;;;;;;4.43;3.03;;;13.20;99.90;;;;;;4926911;29;20047;-59
2023/09/21 03:39:08;;;;;;;3.33;3.03;;;13.10;99.90;;;;;;4923104;29;20467;-59
2023/09/21 03:41:34;;;;;;;4.18;2.83;;;13.00;99.90;;;;;;4926858;29;20271;-59
2023/09/21 03:43:59;;;;;;;2.78;2.53;;;12.90;99.90;;;;;;4927403;29;20068;-59
2023/09/21 03:46:25;;;;;;;4.70;2.72;;;12.80;99.90;;;;;;4925904;29;20043;-59
2023/09/21 03:48:51;;;;;;;3.50;2.83;;;12.70;99.90;;;;;;4926611;29;20036;-60
2023/09/21 03:51:17;;;;;;;3.90;2.80;;;12.60;99.90;;;;;;4926825;29;20496;-59
2023/09/21 03:53:42;;;;;;;3.33;3.00;;;12.50;99.90;;;;;;4927265;29;20031;-59
2023/09/21 03:56:08;;;;;;;3.92;2.78;;;12.40;99.90;;;;;;4926928;29;20058;-59
2023/09/21 03:58:34;;;;;;;3.03;2.83;;;12.40;99.90;;;;;;4925897;29;20496;-59
2023/09/21 04:01:07;;;;;;;4.07;3.13;;;12.40;99.90;;;;;;4923522;29;20040;-59
2023/09/21 04:03:33;;;;;;;4.15;3.20;;;12.30;99.90;;;;;;4923952;28;20139;-59
2023/09/21 04:06:03;;;;;;;7.68;3.35;;;12.30;99.90;;;;;;4926785;29;20548;-59
2023/09/21 04:08:28;;;;;;;4.43;3.42;;;12.30;99.90;;;;;;4928759;29;20032;-59
2023/09/21 04:11:00;;;;;;;4.22;2.83;;;12.20;99.90;;;;;;4932464;29;20538;-58
2023/09/21 04:13:26;;;;;;;3.00;2.67;;;12.20;99.90;;;;;;4929279;29;20043;-59
2023/09/21 04:15:51;;;;;;;4.13;2.78;;;12.20;99.90;;;;;;4929084;28;20035;-59
2023/09/21 04:18:17;;;;;;;3.50;3.20;;;12.20;99.90;;;;;;4928500;29;20377;-59
2023/09/21 04:20:44;;;;;;;2.83;2.63;;;12.10;99.90;;;;;;4929728;29;20171;-59
2023/09/21 04:23:10;;;;;;;6.00;3.25;;;12.10;99.90;;;;;;4927768;29;20047;-60
2023/09/21 04:25:38;;;;;;;3.88;3.08;;;12.10;99.90;;;;;;4928719;29;20554;-59
2023/09/21 04:28:05;;;;;;;3.33;3.05;;;12.10;99.90;;;;;;4928001;28;20753;-60
2023/09/21 04:30:34;;;;;;;3.40;3.10;;;12.00;99.90;;;;;;4927681;29;20083;-59
2023/09/21 04:33:00;;;;;;;3.67;2.85;;;12.00;99.90;;;;;;4927617;29;20499;-58
2023/09/21 04:35:26;;;;;;;4.25;3.00;;;12.00;99.90;;;;;;4930010;28;20039;-59
2023/09/21 04:37:53;;;;;;;2.75;2.38;;;11.90;99.90;;;;;;4931576;29;20019;-59
2023/09/21 04:40:19;;;;;;;2.78;2.50;;;11.90;99.90;;;;;;4929527;29;20128;-60
2023/09/21 04:42:46;;;;;;;4.25;2.35;;;11.80;99.90;;;;;;4930465;28;20053;-60
2023/09/21 04:45:14;;;;;;;3.25;2.63;;;11.80;99.90;;;;;;4927269;29;20044;-59
2023/09/21 04:47:48;;;;;;;3.40;2.55;;;11.80;99.90;;;;;;4930932;29;20063;-60
2023/09/21 04:50:16;;;;;;;3.70;2.25;;;11.80;99.90;;;;;;4928748;29;20103;-59
2023/09/21 04:52:43;;;;;;;2.72;2.53;;;11.70;99.90;;;;;;4931580;29;20043;-60
2023/09/21 04:55:10;;;;;;;3.17;2.47;;;11.70;99.90;;;;;;4932914;28;20048;-59
2023/09/21 04:57:36;;;;;;;2.40;2.20;;;11.70;99.90;;;;;;4927716;29;20094;-59
2023/09/21 05:00:09;;;;;;;4.13;2.53;;;11.70;99.90;;;;;;4932534;28;20192;-59
2023/09/21 05:02:35;;;;;;;2.63;2.33;;;11.60;99.90;;;;;;4930232;29;20063;-59
2023/09/21 05:05:01;;;;;;;3.30;2.60;;;11.60;99.90;;;;;;4927384;29;20055;-60
2023/09/21 05:07:27;;;;;;;2.03;1.70;;;11.60;99.90;;;;;;4927968;29;20040;-59
2023/09/21 05:09:52;;;;;;;3.30;2.15;;;11.60;99.90;;;;;;4929314;29;20023;-59
2023/09/21 05:12:21;;;;;;;6.47;2.28;;;11.60;99.90;;;;;;4927848;29;20040;-60
2023/09/21 05:14:47;;;;;;;3.13;2.92;;;11.60;99.90;;;;;;4931472;29;20071;-59
2023/09/21 05:17:21;;;;;;;2.85;2.65;;;11.60;99.90;;;;;;4927540;29;20422;-60
2023/09/21 05:19:46;;;;;;;3.33;3.00;;;11.70;99.90;;;;;;4927515;29;20152;-59
2023/09/21 05:22:12;;;;;;;4.00;2.80;;;11.70;99.90;;;;;;4925975;29;20119;-59
2023/09/21 05:24:38;;;;;;;3.17;2.88;;;11.70;99.90;;;;;;4925993;29;20408;-59
2023/09/21 05:27:04;;;;;;;4.53;4.13;;;11.80;99.90;;;;;;4928281;29;20039;-59
2023/09/21 05:29:29;;;;;;;4.00;3.20;;;11.80;99.90;;;;;;4927531;29;20028;-58
2023/09/21 05:31:56;;;;;;;4.70;3.22;;;11.90;99.90;;;;;;4928488;29;20032;-59
2023/09/21 05:34:24;;;;;;;3.67;3.38;;;11.90;99.90;;;;;;4928859;29;20035;-59
2023/09/21 05:36:50;;;;;;;6.03;3.33;;;11.90;99.90;;;;;;4928481;29;20123;-59
2023/09/21 05:39:16;;;;;;;3.25;3.03;;;11.80;99.90;;;;;;4926883;28;20168;-59
2023/09/21 05:41:46;;;;;;;4.30;3.97;;;11.80;99.90;;;;;;4929838;28;20047;-59
2023/09/21 05:44:12;;;;;;;3.63;3.33;;;11.90;99.90;;;;;;4927260;29;20035;-60
2023/09/21 05:46:38;;;;;;;3.80;3.50;;;11.90;99.90;;;;;;4930924;29;20031;-59
2023/09/21 05:49:04;;;;;;;4.68;4.22;;;12.00;99.90;;;;;;4927036;28;20086;-59
2023/09/21 05:51:30;;;;;;;4.40;4.10;;;12.10;99.90;;;;;;4927524;29;20087;-59
2023/09/21 05:53:57;;;;;;;4.30;3.83;;;12.20;99.90;;;;;;4928080;28;20513;-59
2023/09/21 05:56:22;;;;;;;4.10;3.80;;;12.30;99.90;;;;;;4927487;29;20610;-60
2023/09/21 05:58:48;;;;;;;4.80;4.38;;;12.40;99.90;;;;;;4927471;29;20020;-59
2023/09/21 06:01:14;;;;;;;4.43;4.13;;;12.60;99.90;;;;;;4926010;29;20036;-60
2023/09/21 06:03:39;;;;;;;4.78;4.38;;;12.70;99.90;;;;;;4925463;29;20044;-60
2023/09/21 06:06:09;;;;;;;5.68;4.40;;;12.80;99.90;;;;;;4925377;29;20027;-59
2023/09/21 06:08:38;;;;;;;5.05;4.40;;;12.90;99.90;;;;;;4925038;29;20035;-59
2023/09/21 06:11:04;;;;;;;5.38;4.97;;;13.00;99.90;;;;;;4928112;29;20031;-59
2023/09/21 06:13:33;;;;;;;4.70;4.30;;;13.10;99.90;;;;;;4914594;29;20504;-59
2023/09/21 06:16:02;;;;;;;5.53;4.15;;;13.20;99.90;;;;;;4928213;29;20035;-59
2023/09/21 06:18:29;;;;;;;4.28;3.97;;;13.40;99.90;;;;;;4925700;29;20112;-59
2023/09/21 06:20:55;;;;;;;4.32;4.03;;;13.50;99.90;;;;;;4912675;29;20056;-60
2023/09/21 06:23:22;;;;;;;4.30;3.90;;;13.60;99.90;;;;;;4927902;29;20035;-60
2023/09/21 06:25:48;;;;;;;4.47;3.15;;;13.70;99.90;;;;;;4929240;29;20102;-60
2023/09/21 06:28:15;;;;;;;3.75;3.45;;;13.90;99.90;;;;;;4927898;29;20156;-60
2023/09/21 06:30:41;;;;;;;5.03;3.72;;;14.00;99.90;;;;;;4928859;29;20036;-60
2023/09/21 06:33:07;;;;;;;3.72;3.45;;;14.20;99.90;;;;;;4928284;28;20032;-60
2023/09/21 06:35:33;;;;;;;3.85;3.55;;;14.30;99.90;;;;;;4926314;29;20032;-60
2023/09/21 06:37:59;;;;;;;5.20;3.67;;;14.40;99.90;;;;;;4927004;29;20028;-60
2023/09/21 06:40:25;;;;;;;4.93;4.43;;;14.60;99.90;;;;;;4927612;28;20055;-59
2023/09/21 06:42:51;;;;;;;4.55;4.15;;;14.60;99.90;;;;;;4928206;29;20032;-59
2023/09/21 06:45:17;;;;;;;7.32;5.10;;;14.70;99.90;;;;;;4929433;29;20058;-59
2023/09/21 06:47:43;;;;;;;3.72;3.42;;;14.70;99.90;;;;;;4928086;29;20373;-59
2023/09/21 06:50:14;;;;;;;4.75;3.20;;;14.70;99.90;;;;;;4926928;29;20031;-60
2023/09/21 06:52:40;;;;;;;;;;;14.70;99.90;;;;;;4925914;29;20048;-59
2023/09/21 06:55:06;;;;;;;3.97;3.53;;;14.80;99.90;;;;;;4923697;29;19918;-59
2023/09/21 06:57:34;;;;;;;5.10;4.30;;;14.90;99.90;;;;;;4927310;29;20057;-59
2023/09/21 07:00:00;;;;;;;5.43;3.28;;;15.00;99.90;;;;;;4924975;29;20403;-60
2023/09/21 07:02:26;;;;;;;4.50;4.03;;;15.10;99.90;;;;;;4923036;29;20026;-59
2023/09/21 07:04:53;;;;;;;5.10;3.70;;;15.20;99.90;;;;;;4925234;29;20020;-60
2023/09/21 07:07:19;;;;;;;3.47;2.75;;;15.40;99.90;;;;;;4923871;29;20032;-59
2023/09/21 07:09:45;;;;;;;5.05;3.08;;;15.50;99.90;;;;;;4924846;28;20028;-59
2023/09/21 07:12:12;;;;;;;3.47;3.17;;;15.60;99.90;;;;;;4925727;29;20476;-60
2023/09/21 07:14:37;;;;;;;3.22;2.90;;;15.70;99.90;;;;;;4925266;29;20099;-59
2023/09/21 07:17:05;;;;;;;4.82;3.53;;;15.90;99.90;;;;;;4928207;29;20118;-60
2023/09/21 07:19:31;;;;;;;4.07;2.25;;;16.10;99.90;;;;;;4927316;28;20067;-59
2023/09/21 07:21:58;;;;;;;8.38;2.75;;;16.20;99.90;;;;;;4925221;29;20039;-59
2023/09/21 07:24:24;;;;;;;3.20;2.30;;;16.30;99.90;;;;;;4925390;29;20043;-61
2023/09/21 07:26:53;;;;;;;2.92;2.40;;;16.50;99.90;;;;;;4924073;29;20114;-60
2023/09/21 07:29:19;;;;;;;2.60;2.40;;;16.60;99.90;;;;;;4925121;29;20035;-60
2023/09/21 07:31:45;;;;;;;3.25;2.30;;;16.80;99.90;;;;;;4927335;29;20024;-60
2023/09/21 07:34:10;;;;;;;2.58;2.08;;;17.00;99.90;;;;;;4924740;29;20593;-60
2023/09/21 07:36:38;;;;;;;2.60;2.40;;;17.20;99.90;;;;;;4928388;29;20040;-60
2023/09/21 07:39:08;;;;;;;2.63;2.15;;;17.40;99.90;;;;;;4927500;28;20040;-60
2023/09/21 07:41:34;;;;;;;3.60;2.38;;;17.50;99.90;;;;;;4927211;29;20079;-60
2023/09/21 07:44:00;;;;;;;3.92;2.30;;;17.70;99.90;;;;;;4932023;29;20036;-59
2023/09/21 07:46:26;;;;;;;3.35;2.45;;;17.90;99.90;;;;;;4929665;29;20033;-59
2023/09/21 07:48:51;;;;;;;2.83;2.28;;;18.00;99.90;;;;;;4930545;29;20063;-59
2023/09/21 07:51:21;;;;;;;2.75;2.50;;;18.10;99.90;;;;;;4928990;29;20032;-60
2023/09/21 07:53:46;;;;;;;3.13;2.63;;;18.10;99.90;;;;;;4928940;28;20052;-60
2023/09/21 07:56:13;;;;;;;2.63;2.38;;;18.10;99.90;;;;;;4929107;29;20031;-60
2023/09/21 07:58:39;;;;;;;2.92;2.50;;;18.10;99.90;;;;;;4927580;29;20027;-60
2023/09/21 08:01:05;;;;;;;2.38;2.17;;;18.20;99.90;;;;;;4930297;28;20032;-60
2023/09/21 08:03:31;;;;;;;3.80;2.05;;;18.20;99.90;;;;;;4929760;29;20662;-60
2023/09/21 08:05:57;;;;;;;4.47;2.38;;;18.30;99.90;;;;;;4929610;29;20035;-60
2023/09/21 08:08:26;;;;;;;3.53;1.85;;;18.30;99.90;;;;;;4927491;29;20083;-59
2023/09/21 08:10:53;;;;;;;4.22;1.90;;;18.40;99.90;;;;;;4929755;29;20088;-60
2023/09/21 08:13:20;;;;;;;1.92;1.70;;;18.40;99.90;;;;;;4933104;29;20456;-59
2023/09/21 08:15:46;;;;;;;2.03;1.80;;;18.50;99.90;;;;;;4927731;29;20024;-59
2023/09/21 08:18:13;;;;;;;2.78;1.95;;;18.60;99.90;;;;;;4927720;29;20032;-60
2023/09/21 08:20:42;;;;;;;2.05;1.63;;;18.70;99.90;;;;;;4910604;29;20041;-60
2023/09/21 08:23:08;;;;;;;2.78;1.85;;;18.80;99.90;;;;;;4929237;29;20024;-60
2023/09/21 08:25:38;;;;;;;1.83;1.50;;;18.90;99.90;;;;;;4931844;29;20038;-60
2023/09/21 08:28:04;;;;;;;2.63;1.60;;;19.00;99.90;;;;;;4926881;29;20028;-60
2023/09/21 08:30:32;;;;;;;5.40;1.63;;;19.10;99.90;;;;;;4928572;29;20515;-60
2023/09/21 08:32:58;;;;;;;2.33;1.27;;;19.20;99.90;;;;;;4928658;29;20031;-58
2023/09/21 08:35:25;;;;;;;5.30;2.25;;;19.30;99.90;;;;;;4911972;29;20028;-60
2023/09/21 08:37:51;;;;;;;4.90;1.65;;;19.40;99.90;;;;;;4927832;29;20020;-60
2023/09/21 08:40:22;;;;;;;2.58;1.45;;;19.60;99.90;;;;;;4929827;29;20492;-60
2023/09/21 08:42:50;;;;;;;;;;;19.90;99.90;;;;;;4932939;29;20072;-60
2023/09/21 08:45:19;;;;;;;4.78;1.60;;;20.10;99.90;;;;;;4923131;29;20298;-59
2023/09/21 08:47:44;;;;;;;1.90;1.40;;;20.40;99.90;;;;;;4932462;29;20031;-60
2023/09/21 08:50:13;;;;;;;10.10;1.67;;;20.70;99.90;;;;;;4928649;29;20106;-61
2023/09/21 08:52:42;;;;;;;4.55;1.30;;;21.00;99.90;;;;;;4930252;29;20560;-61
2023/09/21 08:55:10;;;;;;;3.45;1.40;;;21.30;99.90;;;;;;4926785;29;20031;-59
2023/09/21 08:57:37;;;;;;;3.10;1.80;;;21.60;99.90;;;;;;4930701;29;20040;-60
2023/09/21 09:00:08;;;;;;;2.28;1.38;;;21.80;99.90;;;;;;4929754;29;20039;-60
2023/09/21 09:02:37;;;;;;;;;;;22.00;99.90;;;;;;4929304;29;20043;-61
2023/09/21 09:05:07;;;;;;;2.22;1.40;;;22.40;99.90;;;;;;4929416;29;20280;-60
2023/09/21 09:07:40;;;;;;;2.58;1.42;;;22.90;99.90;;;;;;4927094;29;20043;-60
2023/09/21 09:10:10;;;;;;;1.98;1.35;;;23.70;99.90;;;;;;4930391;29;20028;-61
2023/09/21 09:12:37;;;;;;;2.17;1.33;;;24.60;99.90;;;;;;4930326;29;20028;-61
2023/09/21 09:15:05;;;;;;;1.30;1.00;;;25.10;99.90;;;;;;4910771;29;20036;-60
2023/09/21 09:17:31;;;;;;;1.73;1.17;;;25.50;99.90;;;;;;4927450;28;20105;-60
2023/09/21 09:20:02;;;;;;;1.55;1.10;;;25.50;99.90;;;;;;4926928;29;20031;-60
2023/09/21 09:22:31;;;;;;;2.10;1.10;;;25.50;99.90;;;;;;4928613;29;20512;-61
2023/09/21 09:25:07;;;;;;;1.40;1.10;;;25.40;99.90;;;;;;4928199;29;20126;-58
2023/09/21 09:27:33;;;;;;;2.33;1.13;;;25.20;99.90;;;;;;4929792;29;20453;-61
2023/09/21 09:29:59;;;;;;;1.63;1.30;;;25.20;99.90;;;;;;4926775;29;20054;-61
2023/09/21 09:32:35;;;;;;;1.00;0.90;;;24.90;99.90;;;;;;4926758;29;20476;-61
2023/09/21 09:35:06;;;;;;;2.05;1.20;;;24.70;99.90;;;;;;4927758;29;20024;-60
2023/09/21 09:37:32;;;;;;;;;;;24.60;99.90;;;;;;4925841;29;20052;-61
2023/09/21 09:39:58;;;;;;;1.67;1.20;;;24.60;99.90;;;;;;4923194;29;19915;-61
2023/09/21 09:42:25;;;;;;;2.20;1.10;;;24.50;99.90;;;;;;4926802;29;20048;-61
2023/09/21 09:44:54;;;;;;;1.70;1.48;;;24.40;99.90;;;;;;4927521;29;20071;-60
2023/09/21 09:47:23;;;;;;;1.23;1.05;;;24.20;99.90;;;;;;4927003;29;20036;-60
2023/09/21 09:49:53;;;;;;;2.63;1.15;;;23.80;99.90;;;;;;4930006;29;20036;-61
2023/09/21 09:52:20;;;;;;;5.57;1.50;;;23.60;99.90;;;;;;4928839;29;20059;-60
2023/09/21 09:54:48;;;;;;;1.25;1.15;;;23.50;99.90;;;;;;4925720;28;20028;-60
2023/09/21 09:57:16;;;;;;;1.95;1.27;;;23.30;99.90;;;;;;4925158;29;20235;-60
2023/09/21 09:59:42;;;;;;;3.15;1.20;;;23.30;99.90;;;;;;4891561;29;20118;-61
2023/09/21 10:02:14;;;;;;;1.70;1.30;;;23.30;99.90;;;;;;4926553;29;20115;-60
2023/09/21 10:04:41;;;;;;;1.55;1.10;;;23.50;99.90;;;;;;4926025;29;20841;-62
2023/09/21 10:07:08;;;;;;;1.20;0.98;;;23.60;99.90;;;;;;4925784;28;20040;-61
2023/09/21 10:09:34;;;;;;;1.45;1.10;;;23.70;99.90;;;;;;4924721;29;20127;-61
2023/09/21 10:12:03;;;;;;;2.60;1.08;;;23.90;99.90;;;;;;4928937;29;20036;-60
2023/09/21 10:14:36;;;;;;;2.40;0.98;;;24.00;99.90;;;;;;4928129;29;20111;-60
2023/09/21 10:17:04;;;;;;;1.95;1.10;;;24.10;99.90;;;;;;4923826;29;20031;-61
2023/09/21 10:19:36;;;;;;;1.17;0.98;;;24.20;99.90;;;;;;4927538;29;20035;-60
2023/09/21 10:22:25;;;;;;;2.00;1.80;;;24.30;99.90;;;;;;4927004;29;20694;-60
2023/09/21 10:24:54;;;;;;;2.35;1.17;;;24.40;99.90;;;;;;4926191;29;20035;-62
2023/09/21 10:27:24;;;;;;;2.75;1.10;;;24.40;99.90;;;;;;4924247;29;20035;-60
2023/09/21 10:29:59;;;;;;;1.75;1.00;;;24.40;99.90;;;;;;4924951;29;20027;-60
2023/09/21 10:32:26;;;;;;;3.17;1.10;;;24.50;99.90;;;;;;4926167;29;20031;-60
2023/09/21 10:34:52;;;;;;;2.78;1.40;;;24.60;99.90;;;;;;4926412;29;20032;-60
2023/09/21 10:37:26;;;;;;;2.33;1.00;;;24.80;99.90;;;;;;4926735;29;20039;-61
2023/09/21 10:39:59;;;;;;;3.38;0.98;;;25.10;99.90;;;;;;4925766;28;20400;-60
2023/09/21 10:42:27;;;;;;;3.05;1.10;;;25.30;99.90;;;;;;4928626;29;20410;-60
2023/09/21 10:44:53;;;;;;;1.63;1.00;;;25.50;99.90;;;;;;4925789;28;20063;-60
2023/09/21 10:47:38;;;;;;;2.28;0.90;;;25.60;99.90;;;;;;4928144;29;20511;-59
2023/09/21 10:50:12;;;;;;;2.88;1.10;;;25.90;99.90;;;;;;4926905;29;20496;-60
2023/09/21 10:52:39;;;;;;;3.90;1.00;;;26.00;99.90;;;;;;4925918;29;20050;-61
2023/09/21 10:55:07;;;;;;;1.58;1.00;;;26.20;99.10;;;;;;4927249;29;20118;-60
2023/09/21 10:57:33;;;;;;;1.83;0.95;;;26.20;96.80;;;;;;4926151;28;20411;-60
2023/09/21 11:00:08;;;;;;;1.83;0.90;;;26.40;95.90;;;;;;4928988;29;20127;-60
2023/09/21 11:02:38;;;;;;;1.63;0.82;;;26.50;93.70;;;;;;4927696;29;20537;-59
2023/09/21 11:05:09;;;;;;;1.88;0.90;;;26.60;92.30;;;;;;4926229;29;20473;-60
2023/09/21 11:07:36;;;;;;;1.10;0.95;;;26.50;90.90;;;;;;4925178;29;20593;-60
2023/09/21 11:10:06;;;;;;;1.52;0.77;;;26.30;91.40;;;;;;4925392;29;20086;-60
2023/09/21 11:12:32;;;;;;;1.95;1.00;;;26.00;92.70;;;;;;4910494;29;20050;-61
2023/09/21 11:14:58;;;;;;;2.85;1.15;;;25.90;90.90;;;;;;4921427;29;20032;-60
2023/09/21 11:17:24;;;;;;;1.55;1.00;;;25.80;91.80;;;;;;4921942;29;20596;-61
2023/09/21 11:19:50;;;;;;;1.73;1.23;;;25.70;93.10;;;;;;4924496;29;20126;-61
2023/09/21 11:22:16;;;;;;;2.05;0.98;;;25.50;92.60;;;;;;4925460;29;20106;-59
2023/09/21 11:24:42;;;;;;;4.35;0.80;;;25.40;92.10;;;;;;4926890;29;20039;-60
2023/09/21 11:27:14;;;;;;;2.95;1.25;;;25.20;93.70;;;;;;4927693;29;20028;-60
2023/09/21 11:29:41;;;;;;;19.30;1.92;;;25.20;94.70;;;;;;4921875;29;20032;-60
2023/09/21 11:32:17;;;;;;;364.08;23.70;;;25.30;95.10;;;;;;4926052;29;20043;-60
2023/09/21 11:34:44;;;;;;;1.45;1.00;;;25.40;96.40;;;;;;4922976;29;20432;-60
2023/09/21 11:37:11;;;;;;;1.55;0.90;;;25.40;97.20;;;;;;4926087;29;20039;-60
2023/09/21 11:39:38;;;;;;;1.98;1.15;;;25.70;97.20;;;;;;4925044;28;20508;-61
2023/09/21 11:42:07;;;;;;;1.90;0.90;;;26.00;94.30;;;;;;4927401;29;20046;-60
2023/09/21 11:44:34;;;;;;;3.50;1.30;;;26.40;93.00;;;;;;4924124;29;20031;-60
2023/09/21 11:47:01;;;;;;;2.30;0.90;;;26.50;89.10;;;;;;4925681;29;20024;-60
2023/09/21 11:49:43;;;;;;;1.25;1.10;;;26.60;90.20;;;;;;4927959;29;20548;-60
2023/09/21 11:52:11;;;;;;;5.28;1.10;;;26.50;87.00;;;;;;4925728;29;20036;-60
2023/09/21 11:54:40;;;;;;;4.38;1.13;;;26.50;91.10;;;;;;4926018;29;20028;-60
2023/09/21 11:57:06;;;;;;;2.38;1.08;;;26.70;88.50;;;;;;4922639;29;20055;-60
2023/09/21 11:59:34;;;;;;;1.80;0.90;;;26.80;82.60;;;;;;4925127;29;20035;-61
2023/09/21 12:02:00;;;;;;;2.63;1.10;;;26.90;83.50;;;;;;4925376;29;20400;-59
2023/09/21 12:04:31;;;;;;;3.95;1.08;;;27.00;84.60;;;;;;4904736;29;20570;-60
2023/09/21 12:06:57;;;;;;;1.85;0.80;;;27.10;82.90;;;;;;4924785;29;20032;-60
2023/09/21 12:09:22;;;;;;;3.25;1.70;;;27.30;83.30;;;;;;4922946;29;20082;-60
2023/09/21 12:11:50;;;;;;;2.47;1.25;;;27.40;78.80;;;;;;4925484;29;20380;-60
2023/09/21 12:14:16;;;;;;;1.60;1.10;;;27.20;76.90;;;;;;4927403;29;20032;-61
2023/09/21 12:16:41;;;;;;;2.83;1.25;;;27.20;80.40;;;;;;4924472;29;20079;-60
2023/09/21 12:19:08;;;;;;;1.83;1.00;;;27.20;79.20;;;;;;4924422;29;20032;-60
2023/09/21 12:21:34;;;;;;;1.17;1.00;;;27.20;77.90;;;;;;4926385;29;20377;-59
2023/09/21 12:24:02;;;;;;;1.75;1.00;;;27.30;77.80;;;;;;4906121;29;20025;-60
2023/09/21 12:26:29;;;;;;;1.63;0.95;;;27.40;79.10;;;;;;4910831;29;20032;-60
2023/09/21 12:28:54;;;;;;;3.33;1.00;;;27.50;76.90;;;;;;4926958;29;20032;-61
2023/09/21 12:31:22;;;;;;;2.60;1.00;;;27.50;76.70;;;;;;4926765;29;20408;-60
2023/09/21 12:33:50;;;;;;;2.30;1.40;;;27.60;77.60;;;;;;4927309;29;20036;-61
2023/09/21 12:36:16;;;;;;;4.28;0.90;;;27.60;76.00;;;;;;4929683;29;20059;-60
2023/09/21 12:38:42;;;;;;;2.83;1.00;;;27.60;74.40;;;;;;4930870;29;20173;-60
2023/09/21 12:41:10;;;;;;;1.58;1.13;;;27.60;75.40;;;;;;4930056;29;20484;-60
2023/09/21 12:43:38;;;;;;;2.65;0.90;;;27.70;75.60;;;;;;4932331;29;20035;-60
2023/09/21 12:46:04;;;;;;;5.80;1.30;;;27.80;72.90;;;;;;4930310;29;20079;-60
2023/09/21 12:48:30;;;;;;;3.08;0.90;;;27.70;72.70;;;;;;4927800;29;20035;-60
2023/09/21 12:50:56;;;;;;;1.77;0.90;;;27.70;75.30;;;;;;4926559;29;20024;-60